RJDA(METAR)
08/14 20:00
METAR RJDA 141100Z 25003KT 210V280 9999 FEW020 28/26 Q1011 RMK
1CU020 A2988=
戻る
トップページへ戻る
IMOC Co,.Ltd.